Time;durP1;ratioP1;P1;durP2;ratioP2;P2;SDS_P1;SDS_P2;PMS_P1;PMS_P2;Temp;Humidity;BMP_temperature;BMP_pressure;BME280_temperature;BME280_humidity;BME280_pressure;Samples;Min_cycle;Max_cycle;Signal;HPM_P1;HPM_P2
2024/01/06 00:00:36;;;;;;;9.80;6.20;;;;;;;-147.86;100.00;-17609.17;105075;1265;59280;-45
2024/01/06 00:03:05;;;;;;;9.50;5.80;;;;;;;-147.86;100.00;-17609.17;105110;1264;70938;-47
2024/01/06 00:05:33;;;;;;;8.20;5.90;;;;;;;-147.86;100.00;-17609.17;105061;1269;65329;-45
2024/01/06 00:08:01;;;;;;;9.40;5.60;;;;;;;-147.86;100.00;-17609.17;105054;1267;71339;-47
2024/01/06 00:10:29;;;;;;;12.50;5.90;;;;;;;-147.86;100.00;-17609.17;105054;1267;222606;-44
2024/01/06 00:12:58;;;;;;;8.00;5.20;;;;;;;-147.86;100.00;-17609.17;105212;1262;59297;-46
2024/01/06 00:15:25;;;;;;;7.80;5.00;;;;;;;-147.86;100.00;-17609.17;105227;1263;71071;-45
2024/01/06 00:54:52;;;;;;;;;;;;;;;-147.86;100.00;-17609.17;102831;1290;600258;-43
2024/01/06 00:57:23;;;;;;;8.80;4.20;;;;;;;-147.86;100.00;-17609.17;105037;1264;59248;-43
2024/01/06 01:01:24;;;;;;;6.40;4.50;;;;;;;-147.86;100.00;-17609.17;102690;1292;600876;-43
2024/01/06 01:03:51;;;;;;;6.80;4.00;;;;;;;-147.86;100.00;-17609.17;104818;1271;60831;-43
2024/01/06 01:06:19;;;;;;;7.90;4.40;;;;;;;-147.86;100.00;-17609.17;104869;1271;59277;-43
2024/01/06 01:08:47;;;;;;;5.80;4.20;;;;;;;-147.86;100.00;-17609.17;104837;1266;71275;-43
2024/01/06 01:11:15;;;;;;;6.30;4.50;;;;;;;-147.86;100.00;-17609.17;104859;1266;65283;-43
2024/01/06 01:13:43;;;;;;;4.90;4.20;;;;;;;-147.86;100.00;-17609.17;105460;1259;70814;-43
2024/01/06 01:16:10;;;;;;;13.40;5.50;;;;;;;-147.86;100.00;-17609.17;105308;1255;344963;-43
2024/01/06 01:18:39;;;;;;;7.40;4.60;;;;;;;-147.86;100.00;-17609.17;105580;1261;59270;-43
2024/01/06 01:21:07;;;;;;;8.80;4.70;;;;;;;-147.86;100.00;-17609.17;105633;1257;70945;-43
2024/01/06 01:23:35;;;;;;;10.80;4.70;;;;;;;-147.86;100.00;-17609.17;105638;1256;63939;-43
2024/01/06 01:26:03;;;;;;;5.90;4.40;;;;;;;-147.86;100.00;-17609.17;105588;1257;71503;-43
2024/01/06 01:28:30;;;;;;;6.50;4.70;;;;;;;-147.86;100.00;-17609.17;105644;1256;59728;-43
2024/01/06 01:30:58;;;;;;;13.20;6.10;;;;;;;-147.86;100.00;-17609.17;105600;1258;59979;-43
2024/01/06 01:33:26;;;;;;;7.50;5.30;;;;;;;-147.86;100.00;-17609.17;105617;1256;72080;-43
2024/01/06 01:35:55;;;;;;;8.00;5.50;;;;;;;-147.86;100.00;-17609.17;105577;1256;64039;-43
2024/01/06 01:38:24;;;;;;;13.20;5.80;;;;;;;-147.86;100.00;-17609.17;105499;1256;71365;-42
2024/01/06 01:40:52;;;;;;;9.30;4.90;;;;;;;-147.86;100.00;-17609.17;105574;1255;59642;-43
2024/01/06 01:43:20;;;;;;;12.80;5.90;;;;;;;-147.86;100.00;-17609.17;105592;1260;59610;-42
2024/01/06 01:45:51;;;;;;;10.60;6.20;;;;;;;-147.86;100.00;-17609.17;105593;1261;71590;-43
2024/01/06 01:48:19;;;;;;;12.50;5.20;;;;;;;-147.86;100.00;-17609.17;105608;1260;65127;-42
2024/01/06 01:50:48;;;;;;;9.40;5.60;;;;;;;-147.86;100.00;-17609.17;105599;1256;72639;-42
2024/01/06 01:53:15;;;;;;;10.90;5.50;;;;;;;-147.86;100.00;-17609.17;105642;1257;59727;-43
2024/01/06 01:55:43;;;;;;;8.80;5.40;;;;;;;-147.86;100.00;-17609.17;105635;1261;60187;-42
2024/01/06 02:55:40;;;;;;;3.90;3.40;;;;;;;-147.86;100.00;-17609.17;102659;1293;602701;-43
2024/01/06 02:58:07;;;;;;;6.70;4.40;;;;;;;-147.86;100.00;-17609.17;105229;1266;60839;-43
2024/01/06 03:00:34;;;;;;;5.70;3.90;;;;;;;-147.86;100.00;-17609.17;105207;1263;60282;-44
2024/01/06 03:03:01;;;;;;;5.10;3.40;;;;;;;-147.86;100.00;-17609.17;105254;1263;72174;-43
2024/01/06 03:05:28;;;;;;;4.70;3.50;;;;;;;-147.86;100.00;-17609.17;105318;1266;65460;-43
2024/01/06 03:07:55;;;;;;;9.90;4.00;;;;;;;-147.86;100.00;-17609.17;104924;1263;385055;-43
2024/01/06 03:10:22;;;;;;;4.20;3.10;;;;;;;-147.86;100.00;-17609.17;105302;1267;60221;-43
2024/01/06 03:12:50;;;;;;;4.20;3.50;;;;;;;-147.86;100.00;-17609.17;105214;1260;60252;-43
2024/01/06 03:15:17;;;;;;;5.60;3.60;;;;;;;-147.86;100.00;-17609.17;105307;1264;72296;-43
2024/01/06 03:17:44;;;;;;;5.50;4.20;;;;;;;-147.86;100.00;-17609.17;105332;1264;65610;-43
2024/01/06 03:20:11;;;;;;;6.10;3.60;;;;;;;-147.86;100.00;-17609.17;105273;1261;72611;-43
2024/01/06 03:22:38;;;;;;;4.00;3.60;;;;;;;-147.86;100.00;-17609.17;105226;1264;59554;-43
2024/01/06 03:25:07;;;;;;;4.10;3.20;;;;;;;-147.86;100.00;-17609.17;105267;1260;60231;-42
2024/01/06 03:27:33;;;;;;;5.30;4.00;;;;;;;-147.86;100.00;-17609.17;105228;1264;73072;-43
2024/01/06 03:30:01;;;;;;;7.60;4.60;;;;;;;-147.86;100.00;-17609.17;106063;1251;65559;-43
2024/01/06 03:32:29;;;;;;;6.20;4.10;;;;;;;-147.86;100.00;-17609.17;106037;1250;72632;-43
2024/01/06 03:34:56;;;;;;;5.60;3.90;;;;;;;-147.86;100.00;-17609.17;106110;1253;59549;-43
2024/01/06 03:37:24;;;;;;;5.00;3.80;;;;;;;-147.86;100.00;-17609.17;106054;1251;60331;-42
2024/01/06 03:39:51;;;;;;;6.90;3.80;;;;;;;-147.86;100.00;-17609.17;106048;1253;71675;-42
2024/01/06 03:42:18;;;;;;;5.80;4.10;;;;;;;-147.86;100.00;-17609.17;106081;1251;65664;-43
2024/01/06 03:44:45;;;;;;;11.00;4.20;;;;;;;-147.86;100.00;-17609.17;106150;1253;72648;-43
2024/01/06 03:47:12;;;;;;;4.60;3.80;;;;;;;-147.86;100.00;-17609.17;106039;1253;60830;-43
2024/01/06 03:49:39;;;;;;;6.60;4.10;;;;;;;-147.86;100.00;-17609.17;106097;1251;59526;-43
2024/01/06 03:52:07;;;;;;;4.60;4.00;;;;;;;-147.86;100.00;-17609.17;105995;1251;73158;-43
2024/01/06 03:54:33;;;;;;;6.00;3.90;;;;;;;-147.86;100.00;-17609.17;105943;1254;65402;-43
2024/01/06 03:57:00;;;;;;;8.00;3.90;;;;;;;-147.86;100.00;-17609.17;105948;1250;72588;-43
2024/01/06 03:59:27;;;;;;;8.00;4.40;;;;;;;-147.86;100.00;-17609.17;105996;1254;62393;-43
2024/01/06 04:01:54;;;;;;;7.00;4.50;;;;;;;-147.86;100.00;-17609.17;105941;1250;59704;-42
2024/01/06 04:04:21;;;;;;;5.30;3.90;;;;;;;-147.86;100.00;-17609.17;105968;1253;71904;-43
2024/01/06 04:06:48;;;;;;;8.80;4.80;;;;;;;-147.86;100.00;-17609.17;105981;1251;65315;-43
2024/01/06 04:09:15;;;;;;;6.80;4.00;;;;;;;-147.86;100.00;-17609.17;106016;1250;72457;-43
2024/01/06 04:11:45;;;;;;;7.10;4.30;;;;;;;-147.86;100.00;-17609.17;105915;1254;60872;-43
2024/01/06 04:14:11;;;;;;;7.30;4.60;;;;;;;-147.86;100.00;-17609.17;105941;1254;59625;-43
2024/01/06 04:16:38;;;;;;;8.40;4.60;;;;;;;-147.86;100.00;-17609.17;105937;1254;73001;-43
2024/01/06 04:19:07;;;;;;;5.90;4.10;;;;;;;-147.86;100.00;-17609.17;106039;1254;65532;-42
2024/01/06 04:21:34;;;;;;;6.00;4.40;;;;;;;-147.86;100.00;-17609.17;105922;1251;72593;-42
2024/01/06 04:24:01;;;;;;;11.80;4.80;;;;;;;-147.86;100.00;-17609.17;105945;1254;59530;-42
2024/01/06 04:26:28;;;;;;;6.80;4.90;;;;;;;-147.86;100.00;-17609.17;105963;1250;60312;-42
2024/01/06 04:28:55;;;;;;;6.90;4.90;;;;;;;-147.86;100.00;-17609.17;105924;1251;72911;-43
2024/01/06 04:31:22;;;;;;;6.60;4.30;;;;;;;-147.86;100.00;-17609.17;105927;1254;65529;-43
2024/01/06 04:33:49;;;;;;;7.40;5.20;;;;;;;-147.86;100.00;-17609.17;105936;1251;72501;-43
2024/01/06 04:36:16;;;;;;;14.10;4.80;;;;;;;-147.86;100.00;-17609.17;105948;1254;61341;-43
2024/01/06 04:38:43;;;;;;;9.50;4.40;;;;;;;-147.86;100.00;-17609.17;105994;1250;60286;-44
2024/01/06 04:41:10;;;;;;;10.90;4.10;;;;;;;-147.86;100.00;-17609.17;105926;1251;73146;-43
2024/01/06 04:43:37;;;;;;;13.80;5.00;;;;;;;-147.86;100.00;-17609.17;106047;1254;65518;-43
2024/01/06 04:46:03;;;;;;;15.70;6.00;;;;;;;-147.86;100.00;-17609.17;105956;1250;72607;-43
2024/01/06 04:48:31;;;;;;;11.90;6.10;;;;;;;-147.86;100.00;-17609.17;105931;1253;59681;-44
2024/01/06 04:50:58;;;;;;;7.30;5.60;;;;;;;-147.86;100.00;-17609.17;106072;1250;60308;-42
2024/01/06 04:53:25;;;;;;;11.90;5.50;;;;;;;-147.86;100.00;-17609.17;105956;1252;71765;-43
2024/01/06 04:55:52;;;;;;;10.50;6.00;;;;;;;-147.86;100.00;-17609.17;105979;1254;65651;-43
2024/01/06 04:58:18;;;;;;;11.10;5.50;;;;;;;-147.86;100.00;-17609.17;105990;1251;72451;-43
2024/01/06 05:00:45;;;;;;;8.30;4.60;;;;;;;-147.86;100.00;-17609.17;105976;1253;61804;-42
2024/01/06 05:03:12;;;;;;;8.10;4.80;;;;;;;-147.86;100.00;-17609.17;105975;1250;60409;-42
2024/01/06 05:05:39;;;;;;;7.00;4.60;;;;;;;-147.86;100.00;-17609.17;105995;1253;73056;-43
2024/01/06 05:08:06;;;;;;;6.00;4.30;;;;;;;-147.86;100.00;-17609.17;106005;1254;65341;-43
2024/01/06 05:10:33;;;;;;;6.60;4.50;;;;;;;-147.86;100.00;-17609.17;105974;1251;72638;-44
2024/01/06 05:13:00;;;;;;;6.40;5.00;;;;;;;-147.86;100.00;-17609.17;105961;1253;59708;-43
2024/01/06 05:15:27;;;;;;;9.30;6.20;;;;;;;-147.86;100.00;-17609.17;105990;1250;59733;-43
2024/01/06 05:17:54;;;;;;;9.30;6.00;;;;;;;-147.86;100.00;-17609.17;106021;1254;73060;-43
2024/01/06 05:20:22;;;;;;;10.60;5.60;;;;;;;-147.86;100.00;-17609.17;106005;1250;64368;-43
2024/01/06 05:22:50;;;;;;;10.70;5.40;;;;;;;-147.86;100.00;-17609.17;105965;1254;72306;-42
2024/01/06 05:25:18;;;;;;;9.10;5.40;;;;;;;-147.86;100.00;-17609.17;106045;1254;59740;-42
2024/01/06 05:27:44;;;;;;;8.90;5.60;;;;;;;-147.86;100.00;-17609.17;106002;1254;60369;-43
2024/01/06 05:30:12;;;;;;;9.00;6.20;;;;;;;-147.86;100.00;-17609.17;106053;1254;71893;-44
2024/01/06 05:32:39;;;;;;;15.00;6.00;;;;;;;-147.86;100.00;-17609.17;105986;1254;65440;-43
2024/01/06 05:35:07;;;;;;;9.80;6.30;;;;;;;-147.86;100.00;-17609.17;105977;1251;72619;-43
2024/01/06 05:37:34;;;;;;;16.50;6.80;;;;;;;-147.86;100.00;-17609.17;105974;1254;59759;-43
2024/01/06 05:40:03;;;;;;;9.10;5.90;;;;;;;-147.86;100.00;-17609.17;105992;1250;60234;-43
2024/01/06 05:42:31;;;;;;;15.60;5.80;;;;;;;-147.86;100.00;-17609.17;106012;1251;72878;-43
2024/01/06 05:44:58;;;;;;;11.50;5.80;;;;;;;-147.86;100.00;-17609.17;105969;1254;65296;-43
2024/01/06 05:47:26;;;;;;;10.40;5.90;;;;;;;-147.86;100.00;-17609.17;105995;1251;72419;-43
2024/01/06 05:49:53;;;;;;;13.80;6.60;;;;;;;-147.86;100.00;-17609.17;105987;1254;61884;-42
2024/01/06 05:52:20;;;;;;;15.20;6.40;;;;;;;-147.86;100.00;-17609.17;106025;1251;60545;-44
2024/01/06 05:54:47;;;;;;;12.90;6.50;;;;;;;-147.86;100.00;-17609.17;105909;1251;72974;-44
2024/01/06 05:57:14;;;;;;;12.30;5.90;;;;;;;-147.86;100.00;-17609.17;105727;1254;65547;-43
2024/01/06 05:59:41;;;;;;;10.50;6.10;;;;;;;-147.86;100.00;-17609.17;105652;1250;72472;-43
2024/01/06 06:02:08;;;;;;;7.50;4.70;;;;;;;-147.86;100.00;-17609.17;105886;1254;59611;-44
2024/01/06 06:04:35;;;;;;;11.70;5.40;;;;;;;-147.86;100.00;-17609.17;105962;1250;60073;-42
2024/01/06 06:07:02;;;;;;;14.60;6.30;;;;;;;-147.86;100.00;-17609.17;105959;1254;72779;-43
2024/01/06 06:09:30;;;;;;;13.00;6.70;;;;;;;-147.86;100.00;-17609.17;105976;1251;65575;-42
2024/01/06 06:11:57;;;;;;;14.50;6.20;;;;;;;-147.86;100.00;-17609.17;105965;1250;72581;-42
2024/01/06 06:14:23;;;;;;;14.80;6.80;;;;;;;-147.86;100.00;-17609.17;106021;1254;60194;-43
2024/01/06 06:16:55;;;;;;;14.60;6.10;;;;;;;-147.86;100.00;-17609.17;105952;1250;60276;-42
2024/01/06 06:19:22;;;;;;;9.80;5.50;;;;;;;-147.86;100.00;-17609.17;106015;1251;73077;-43
2024/01/06 06:21:49;;;;;;;11.90;6.10;;;;;;;-147.86;100.00;-17609.17;105973;1254;65465;-42
2024/01/06 06:24:16;;;;;;;8.80;5.10;;;;;;;-147.86;100.00;-17609.17;105937;1250;72585;-42
2024/01/06 06:26:43;;;;;;;12.10;5.40;;;;;;;-147.86;100.00;-17609.17;105948;1254;60296;-43
2024/01/06 06:29:10;;;;;;;11.50;4.60;;;;;;;-147.86;100.00;-17609.17;105939;1250;60184;-42
2024/01/06 06:31:36;;;;;;;10.20;5.00;;;;;;;-147.86;100.00;-17609.17;105934;1250;72988;-42
2024/01/06 06:34:04;;;;;;;8.60;5.00;;;;;;;-147.86;100.00;-17609.17;105969;1254;65632;-42
2024/01/06 06:36:36;;;;;;;10.30;4.60;;;;;;;-147.86;100.00;-17609.17;105953;1250;71758;-42
2024/01/06 06:39:04;;;;;;;8.90;4.50;;;;;;;-147.86;100.00;-17609.17;105975;1254;60292;-43
2024/01/06 06:41:30;;;;;;;7.10;4.50;;;;;;;-147.86;100.00;-17609.17;106007;1250;60271;-42
2024/01/06 06:43:57;;;;;;;9.20;5.30;;;;;;;-147.86;100.00;-17609.17;105950;1254;73215;-42
2024/01/06 06:46:24;;;;;;;10.30;5.60;;;;;;;-147.86;100.00;-17609.17;105980;1254;65406;-42
2024/01/06 06:48:51;;;;;;;9.60;5.90;;;;;;;-147.86;100.00;-17609.17;105948;1250;73293;-42
2024/01/06 06:51:18;;;;;;;11.60;5.60;;;;;;;-147.86;100.00;-17609.17;105970;1254;59744;-42
2024/01/06 06:53:45;;;;;;;9.90;5.60;;;;;;;-147.86;100.00;-17609.17;106050;1250;60426;-42
2024/01/06 06:56:17;;;;;;;8.10;5.10;;;;;;;-147.86;100.00;-17609.17;105945;1251;72977;-42
2024/01/06 06:58:43;;;;;;;9.50;5.20;;;;;;;-147.86;100.00;-17609.17;105958;1254;65634;-43
2024/01/06 07:01:10;;;;;;;6.70;5.30;;;;;;;-147.86;100.00;-17609.17;105917;1250;72636;-43
2024/01/06 07:03:37;;;;;;;11.00;5.30;;;;;;;-147.86;100.00;-17609.17;105971;1254;61027;-42
2024/01/06 07:06:04;;;;;;;8.30;5.20;;;;;;;-147.86;100.00;-17609.17;105963;1250;60617;-43
2024/01/06 07:08:32;;;;;;;7.20;5.20;;;;;;;-147.86;100.00;-17609.17;105865;1251;73921;-43
2024/01/06 07:10:59;;;;;;;8.60;5.60;;;;;;;-147.86;100.00;-17609.17;106024;1254;64379;-42
2024/01/06 07:13:26;;;;;;;11.70;6.20;;;;;;;-147.86;100.00;-17609.17;105913;1250;72630;-43
2024/01/06 07:15:53;;;;;;;10.30;5.70;;;;;;;-147.86;100.00;-17609.17;105910;1254;60338;-43
2024/01/06 07:18:30;;;;;;;10.10;6.20;;;;;;;-147.86;100.00;-17609.17;105988;1250;60840;-43
2024/01/06 07:20:58;;;;;;;9.60;6.70;;;;;;;-147.86;100.00;-17609.17;105984;1254;73836;-43
2024/01/06 07:23:24;;;;;;;13.90;7.10;;;;;;;-147.86;100.00;-17609.17;105968;1254;65594;-43
2024/01/06 07:25:51;;;;;;;13.40;7.20;;;;;;;-147.86;100.00;-17609.17;105975;1251;72669;-43
2024/01/06 07:28:18;;;;;;;14.90;8.00;;;;;;;-147.86;100.00;-17609.17;105988;1254;60404;-43
2024/01/06 07:30:46;;;;;;;14.80;7.10;;;;;;;-147.86;100.00;-17609.17;106033;1251;60597;-43
2024/01/06 07:33:12;;;;;;;16.20;8.50;;;;;;;-147.86;100.00;-17609.17;105965;1251;73794;-43
2024/01/06 07:35:43;;;;;;;18.40;8.90;;;;;;;-147.86;100.00;-17609.17;105936;1254;65635;-43
2024/01/06 07:38:10;;;;;;;13.90;8.70;;;;;;;-147.86;100.00;-17609.17;105988;1251;72626;-42
2024/01/06 07:40:37;;;;;;;14.30;7.80;;;;;;;-147.86;100.00;-17609.17;106026;1250;61160;-43
2024/01/06 07:43:04;;;;;;;11.00;7.10;;;;;;;-147.86;100.00;-17609.17;105874;1250;60451;-43
2024/01/06 07:45:32;;;;;;;12.00;6.80;;;;;;;-147.86;100.00;-17609.17;105979;1251;73864;-43
2024/01/06 07:47:59;;;;;;;16.10;7.60;;;;;;;-147.86;100.00;-17609.17;106040;1254;65445;-43
2024/01/06 07:50:26;;;;;;;13.80;8.10;;;;;;;-147.86;100.00;-17609.17;105973;1251;71682;-43
2024/01/06 07:52:54;;;;;;;13.20;7.60;;;;;;;-147.86;100.00;-17609.17;106035;1254;60528;-43
2024/01/06 07:55:21;;;;;;;14.90;8.30;;;;;;;-147.86;100.00;-17609.17;105999;1251;61114;-43
2024/01/06 07:57:48;;;;;;;15.50;7.50;;;;;;;-147.86;100.00;-17609.17;106003;1254;73838;-43
2024/01/06 08:00:16;;;;;;;12.60;7.30;;;;;;;-147.86;100.00;-17609.17;105961;1254;65418;-43
2024/01/06 08:02:43;;;;;;;11.90;7.00;;;;;;;-147.86;100.00;-17609.17;106072;1250;71649;-43
2024/01/06 08:05:10;;;;;;;12.00;7.30;;;;;;;-147.86;100.00;-17609.17;105972;1254;60345;-43
2024/01/06 08:07:37;;;;;;;16.00;7.00;;;;;;;-147.86;100.00;-17609.17;105966;1250;60479;-43
2024/01/06 08:10:05;;;;;;;10.90;7.20;;;;;;;-147.86;100.00;-17609.17;105979;1250;73675;-43
2024/01/06 08:12:32;;;;;;;9.50;6.60;;;;;;;-147.86;100.00;-17609.17;106010;1254;64749;-43
2024/01/06 08:15:00;;;;;;;9.70;6.30;;;;;;;-147.86;100.00;-17609.17;106020;1251;72684;-43
2024/01/06 08:17:27;;;;;;;9.40;6.60;;;;;;;-147.86;100.00;-17609.17;105999;1254;60419;-44
2024/01/06 08:19:55;;;;;;;12.10;7.10;;;;;;;-147.86;100.00;-17609.17;106089;1250;60438;-43
2024/01/06 08:22:21;;;;;;;11.40;6.90;;;;;;;-147.86;100.00;-17609.17;106001;1251;73884;-43
2024/01/06 08:24:48;;;;;;;14.70;8.30;;;;;;;-147.86;100.00;-17609.17;106003;1253;64559;-44
2024/01/06 08:27:15;;;;;;;12.00;7.10;;;;;;;-147.86;100.00;-17609.17;105964;1254;72685;-43
2024/01/06 08:29:43;;;;;;;12.90;8.20;;;;;;;-147.86;100.00;-17609.17;105977;1254;61122;-44
2024/01/06 08:32:11;;;;;;;12.90;7.00;;;;;;;-147.86;100.00;-17609.17;105974;1249;60447;-44
2024/01/06 08:34:38;;;;;;;11.00;6.80;;;;;;;-147.86;100.00;-17609.17;106015;1253;73798;-44
2024/01/06 08:37:05;;;;;;;8.50;6.10;;;;;;;-147.86;100.00;-17609.17;105981;1254;65192;-43
2024/01/06 08:39:32;;;;;;;11.50;6.90;;;;;;;-147.86;100.00;-17609.17;106083;1254;72756;-43
2024/01/06 08:41:59;;;;;;;11.00;6.70;;;;;;;-147.86;100.00;-17609.17;105981;1254;60325;-43
2024/01/06 08:44:28;;;;;;;14.40;7.60;;;;;;;-147.86;100.00;-17609.17;106006;1250;60480;-43
2024/01/06 08:46:55;;;;;;;12.30;7.10;;;;;;;-147.86;100.00;-17609.17;105944;1251;73771;-44
2024/01/06 08:49:22;;;;;;;11.70;7.10;;;;;;;-147.86;100.00;-17609.17;105991;1254;65546;-44
2024/01/06 08:51:50;;;;;;;19.20;9.90;;;;;;;-147.86;100.00;-17609.17;105985;1250;72949;-44
2024/01/06 08:54:17;;;;;;;20.50;10.40;;;;;;;-147.86;100.00;-17609.17;105982;1254;60408;-44
2024/01/06 08:56:44;;;;;;;16.10;10.20;;;;;;;-147.86;100.00;-17609.17;106058;1253;60422;-43
2024/01/06 08:59:11;;;;;;;15.60;7.70;;;;;;;-147.86;100.00;-17609.17;105960;1254;73693;-43
2024/01/06 09:13:21;;;;;;;7.00;5.30;;;;;;;-147.86;100.00;-17609.17;103309;1282;613300;-46
2024/01/06 09:15:53;;;;;;;8.90;6.20;;;;;;;-147.86;100.00;-17609.17;104678;1271;303997;-50
2024/01/06 09:18:21;;;;;;;9.00;5.90;;;;;;;-147.86;100.00;-17609.17;104991;1269;59298;-50
2024/01/06 09:20:49;;;;;;;13.20;8.40;;;;;;;-147.86;100.00;-17609.17;105009;1263;70990;-50
2024/01/06 09:23:17;;;;;;;31.90;15.20;;;;;;;-147.86;100.00;-17609.17;105011;1263;64084;-47
2024/01/06 09:25:50;;;;;;;223.70;85.20;;;;;;;-147.86;100.00;-17609.17;104967;1268;72546;-50
2024/01/06 09:28:18;;;;;;;71.30;28.10;;;;;;;-147.86;100.00;-17609.17;105012;1266;60915;-50
2024/01/06 09:30:47;;;;;;;310.00;117.00;;;;;;;-147.86;100.00;-17609.17;105000;1263;60021;-51
2024/01/06 09:33:17;;;;;;;1011.40;338.90;;;;;;;-147.86;100.00;-17609.17;105006;1265;72258;-53
2024/01/06 09:35:45;;;;;;;805.40;293.30;;;;;;;-147.86;100.00;-17609.17;104988;1264;63134;-51
2024/01/06 09:38:14;;;;;;;467.80;147.90;;;;;;;-147.86;100.00;-17609.17;105000;1265;71708;-51
2024/01/06 09:40:45;;;;;;;1033.50;400.50;;;;;;;-147.86;100.00;-17609.17;104995;1268;59767;-49
2024/01/06 09:43:14;;;;;;;164.80;49.60;;;;;;;-147.86;100.00;-17609.17;105110;1263;59954;-52
2024/01/06 09:45:42;;;;;;;1999.90;767.90;;;;;;;-147.86;100.00;-17609.17;105044;1263;72982;-49
2024/01/06 09:48:12;;;;;;;90.30;28.40;;;;;;;-147.86;100.00;-17609.17;104966;1263;63815;-53
2024/01/06 09:50:41;;;;;;;60.70;26.60;;;;;;;-147.86;100.00;-17609.17;105044;1263;72462;-50
2024/01/06 09:53:10;;;;;;;19.70;9.60;;;;;;;-147.86;100.00;-17609.17;105060;1266;59923;-53
2024/01/06 09:55:39;;;;;;;21.00;9.70;;;;;;;-147.86;100.00;-17609.17;105019;1263;60064;-52
2024/01/06 09:58:08;;;;;;;15.50;8.20;;;;;;;-147.86;100.00;-17609.17;105041;1270;73012;-53
2024/01/06 10:00:37;;;;;;;15.40;9.40;;;;;;;-147.86;100.00;-17609.17;105001;1269;64066;-52
2024/01/06 10:03:07;;;;;;;13.40;8.10;;;;;;;-147.86;100.00;-17609.17;104828;1264;75347;-50
2024/01/06 10:05:36;;;;;;;10.30;6.30;;;;;;;-147.86;100.00;-17609.17;104809;1266;60224;-49
2024/01/06 10:08:04;;;;;;;6.70;4.60;;;;;;;-147.86;100.00;-17609.17;104865;1270;59564;-52
2024/01/06 10:10:34;;;;;;;9.80;5.00;;;;;;;-147.86;100.00;-17609.17;104862;1266;71760;-50
2024/01/06 10:13:01;;;;;;;7.90;4.60;;;;;;;-147.86;100.00;-17609.17;104951;1269;62466;-53
2024/01/06 10:15:29;;;;;;;6.20;4.50;;;;;;;-147.86;100.00;-17609.17;104851;1268;71299;-53
2024/01/06 10:17:58;;;;;;;6.90;4.90;;;;;;;-147.86;100.00;-17609.17;104808;1267;59721;-52
2024/01/06 10:20:26;;;;;;;5.30;3.70;;;;;;;-147.86;100.00;-17609.17;104891;1270;59701;-52
2024/01/06 10:22:54;;;;;;;6.80;4.60;;;;;;;-147.86;100.00;-17609.17;104788;1266;71953;-52
2024/01/06 10:25:23;;;;;;;6.50;4.30;;;;;;;-147.86;100.00;-17609.17;104876;1266;64938;-51
2024/01/06 10:27:52;;;;;;;4.50;4.00;;;;;;;-147.86;100.00;-17609.17;104839;1267;71505;-51
2024/01/06 10:30:20;;;;;;;12.40;4.30;;;;;;;-147.86;100.00;-17609.17;104954;1267;59668;-50
2024/01/06 10:32:49;;;;;;;8.80;4.70;;;;;;;-147.86;100.00;-17609.17;104842;1267;59792;-51
2024/01/06 10:35:18;;;;;;;6.20;4.40;;;;;;;-147.86;100.00;-17609.17;104819;1266;72281;-53
2024/01/06 10:37:46;;;;;;;6.40;4.90;;;;;;;-147.86;100.00;-17609.17;104868;1270;64381;-53
2024/01/06 10:40:18;;;;;;;7.20;4.50;;;;;;;-147.86;100.00;-17609.17;104814;1267;71625;-53
2024/01/06 10:42:46;;;;;;;11.70;7.60;;;;;;;-147.86;100.00;-17609.17;104824;1266;60915;-49
2024/01/06 10:45:15;;;;;;;7.90;6.20;;;;;;;-147.86;100.00;-17609.17;104866;1269;59667;-49
2024/01/06 10:47:43;;;;;;;4.30;3.60;;;;;;;-147.86;100.00;-17609.17;104853;1266;71852;-52
2024/01/06 10:50:13;;;;;;;6.80;4.20;;;;;;;-147.86;100.00;-17609.17;104843;1266;63232;-50
2024/01/06 10:52:41;;;;;;;4.70;4.20;;;;;;;-147.86;100.00;-17609.17;104826;1270;72606;-49
2024/01/06 10:55:09;;;;;;;6.70;4.10;;;;;;;-147.86;100.00;-17609.17;105161;1263;59771;-51
2024/01/06 10:57:37;;;;;;;10.40;4.30;;;;;;;-147.86;100.00;-17609.17;105228;1259;59552;-51
2024/01/06 11:00:06;;;;;;;6.40;4.70;;;;;;;-147.86;100.00;-17609.17;105626;1256;72991;-47
2024/01/06 11:02:34;;;;;;;9.10;4.80;;;;;;;-147.86;100.00;-17609.17;105607;1256;64409;-46
2024/01/06 11:05:01;;;;;;;4.30;3.90;;;;;;;-147.86;100.00;-17609.17;105541;1257;71460;-51
2024/01/06 11:07:29;;;;;;;8.50;5.90;;;;;;;-147.86;100.00;-17609.17;105591;1256;60139;-52
2024/01/06 11:10:11;;;;;;;6.30;4.70;;;;;;;-147.86;100.00;-17609.17;105638;1256;59592;-50
2024/01/06 11:12:38;;;;;;;5.00;4.00;;;;;;;-147.86;100.00;-17609.17;105689;1259;71848;-52
2024/01/06 11:15:06;;;;;;;8.60;5.30;;;;;;;-147.86;100.00;-17609.17;105644;1259;64531;-53
2024/01/06 11:17:57;;;;;;;9.10;4.20;;;;;;;-147.86;100.00;-17609.17;105644;1259;72680;-55
2024/01/06 11:20:26;;;;;;;8.40;4.00;;;;;;;-147.86;100.00;-17609.17;105635;1255;59690;-53
2024/01/06 11:22:54;;;;;;;7.00;3.80;;;;;;;-147.86;100.00;-17609.17;105599;1260;59841;-53
2024/01/06 11:25:22;;;;;;;7.80;4.00;;;;;;;-147.86;100.00;-17609.17;105666;1256;71794;-52
2024/01/06 11:27:50;;;;;;;4.70;3.60;;;;;;;-147.86;100.00;-17609.17;105641;1256;63104;-52
2024/01/06 11:30:25;;;;;;;7.40;4.40;;;;;;;-147.86;100.00;-17609.17;105624;1256;71510;-55
2024/01/06 11:32:54;;;;;;;4.50;3.60;;;;;;;-147.86;100.00;-17609.17;105569;1256;59645;-49
2024/01/06 11:35:23;;;;;;;10.00;5.40;;;;;;;-147.86;100.00;-17609.17;105609;1255;61068;-53
2024/01/06 11:37:54;;;;;;;5.20;4.10;;;;;;;-147.86;100.00;-17609.17;105535;1256;75028;-53
2024/01/06 11:40:26;;;;;;;5.70;5.00;;;;;;;-147.86;100.00;-17609.17;105678;1259;64374;-56
2024/01/06 11:43:07;;;;;;;6.30;4.40;;;;;;;-147.86;100.00;-17609.17;105609;1256;71613;-52
2024/01/06 11:45:36;;;;;;;9.90;4.40;;;;;;;-147.86;100.00;-17609.17;105588;1256;59653;-52
2024/01/06 11:48:08;;;;;;;7.90;4.40;;;;;;;-147.86;100.00;-17609.17;105577;1256;59761;-53
2024/01/06 11:50:38;;;;;;;7.50;4.50;;;;;;;-147.86;100.00;-17609.17;105632;1256;72994;-50
2024/01/06 11:53:07;;;;;;;7.10;4.00;;;;;;;-147.86;100.00;-17609.17;105595;1256;64636;-55
2024/01/06 11:55:35;;;;;;;6.50;3.60;;;;;;;-147.86;100.00;-17609.17;105532;1256;72713;-53
2024/01/06 11:58:04;;;;;;;7.00;3.80;;;;;;;-147.86;100.00;-17609.17;105614;1259;61095;-56
2024/01/06 12:00:39;;;;;;;7.00;4.00;;;;;;;-147.86;100.00;-17609.17;105650;1256;59635;-52
2024/01/06 12:03:08;;;;;;;5.00;3.90;;;;;;;-147.86;100.00;-17609.17;105684;1256;71831;-52
2024/01/06 12:05:36;;;;;;;16.40;10.90;;;;;;;-147.86;100.00;-17609.17;105605;1256;62578;-55
2024/01/06 12:08:06;;;;;;;10.40;5.50;;;;;;;-147.86;100.00;-17609.17;105585;1256;71426;-52
2024/01/06 12:10:36;;;;;;;6.90;4.30;;;;;;;-147.86;100.00;-17609.17;105636;1255;59693;-54
2024/01/06 12:13:08;;;;;;;7.30;5.20;;;;;;;-147.86;100.00;-17609.17;105515;1261;59676;-55
2024/01/06 12:15:38;;;;;;;5.90;4.20;;;;;;;-147.86;100.00;-17609.17;105575;1260;73032;-54
2024/01/06 12:18:07;;;;;;;11.90;4.20;;;;;;;-147.86;100.00;-17609.17;105588;1256;63565;-54
2024/01/06 12:20:35;;;;;;;6.40;4.70;;;;;;;-147.86;100.00;-17609.17;105636;1255;71318;-55
2024/01/06 12:23:05;;;;;;;10.50;5.00;;;;;;;-147.86;100.00;-17609.17;105550;1256;59715;-55
2024/01/06 12:25:35;;;;;;;13.50;6.40;;;;;;;-147.86;100.00;-17609.17;105646;1259;59614;-58
2024/01/06 12:28:07;;;;;;;9.70;6.10;;;;;;;-147.86;100.00;-17609.17;105557;1256;71734;-57
2024/01/06 12:30:35;;;;;;;9.20;5.20;;;;;;;-147.86;100.00;-17609.17;105631;1259;64393;-55
2024/01/06 12:33:04;;;;;;;12.20;5.40;;;;;;;-147.86;100.00;-17609.17;105636;1256;71125;-57
2024/01/06 12:35:32;;;;;;;7.10;5.10;;;;;;;-147.86;100.00;-17609.17;105635;1256;59675;-56
2024/01/06 12:38:05;;;;;;;11.20;5.60;;;;;;;-147.86;100.00;-17609.17;105526;1261;59590;-56
2024/01/06 12:40:35;;;;;;;14.50;6.00;;;;;;;-147.86;100.00;-17609.17;105638;1259;71908;-58